createdAt,value
2022-08-17T00:02:25.875Z,17.05
2022-08-17T00:04:54.265Z,15.82
2022-08-17T00:07:21.293Z,15.25
2022-08-17T00:09:48.264Z,15.88
2022-08-17T00:12:43.735Z,16.05
2022-08-17T00:15:02.364Z,18.17
2022-08-17T00:17:29.266Z,18.45
2022-08-17T00:19:56.237Z,18.30
2022-08-17T00:22:33.076Z,17.42
2022-08-17T00:25:05.340Z,16.95
2022-08-17T00:27:32.294Z,18.55
2022-08-17T00:29:59.276Z,27.42
2022-08-17T00:33:23.147Z,18.63
2022-08-17T00:35:17.599Z,17.45
2022-08-17T00:37:44.532Z,16.88
2022-08-17T00:40:14.283Z,17.20
2022-08-17T00:42:42.521Z,17.60
2022-08-17T00:45:11.957Z,17.27
2022-08-17T00:47:38.854Z,15.83
2022-08-17T00:50:08.546Z,16.05
2022-08-17T00:52:42.726Z,16.70
2022-08-17T00:55:11.118Z,14.60
2022-08-17T00:57:44.999Z,14.48
2022-08-17T01:00:38.124Z,14.18
2022-08-17T01:03:13.150Z,14.55
2022-08-17T01:05:42.522Z,13.07
2022-08-17T01:08:13.441Z,12.73
2022-08-17T01:10:59.608Z,10.88
2022-08-17T01:13:39.631Z,11.70
2022-08-17T01:16:22.359Z,9.35
2022-08-17T01:18:53.147Z,10.73
2022-08-17T01:21:28.981Z,10.88
2022-08-17T01:23:56.649Z,9.43
2022-08-17T01:26:23.940Z,8.82
2022-08-17T01:28:54.373Z,9.55
2022-08-17T01:31:28.082Z,9.32
2022-08-17T01:33:55.089Z,7.78
2022-08-17T01:36:22.014Z,11.45
2022-08-17T01:38:48.994Z,9.55
2022-08-17T01:41:16.577Z,8.50
2022-08-17T01:43:55.733Z,9.55
2022-08-17T01:46:29.785Z,8.55
2022-08-17T01:48:58.006Z,9.80
2022-08-17T01:51:32.104Z,7.38
2022-08-17T01:54:05.092Z,11.73
2022-08-17T01:56:34.274Z,7.57
2022-08-17T01:59:01.560Z,9.18
2022-08-17T02:01:30.874Z,7.93
2022-08-17T02:04:00.818Z,8.43
2022-08-17T02:06:42.768Z,9.40
2022-08-17T02:09:16.835Z,9.77
2022-08-17T02:11:44.571Z,11.13
2022-08-17T02:14:13.526Z,10.18
2022-08-17T02:16:41.400Z,10.50
2022-08-17T02:19:11.898Z,10.13
2022-08-17T02:21:40.483Z,12.48
2022-08-17T02:24:10.937Z,13.85
2022-08-17T02:26:38.011Z,12.27
2022-08-17T02:29:05.062Z,12.98
2022-08-17T02:31:32.155Z,11.70
2022-08-17T02:34:03.941Z,12.23
2022-08-17T02:36:35.939Z,11.68
2022-08-17T02:39:05.723Z,12.88
2022-08-17T02:41:32.982Z,13.18
2022-08-17T02:43:59.984Z,12.45
2022-08-17T02:46:26.971Z,12.02
2022-08-17T02:48:53.991Z,15.77
2022-08-17T02:51:20.995Z,14.57
2022-08-17T02:53:47.913Z,21.27
2022-08-17T02:56:15.104Z,15.82
2022-08-17T02:58:42.100Z,14.90
2022-08-17T03:01:10.125Z,16.13
2022-08-17T03:03:37.812Z,16.55
2022-08-17T03:06:06.206Z,18.13
2022-08-17T03:08:33.690Z,15.82
2022-08-17T03:11:00.630Z,19.38
2022-08-17T03:13:27.698Z,17.13
2022-08-17T03:15:54.573Z,18.08
2022-08-17T03:18:24.889Z,16.98
2022-08-17T03:20:59.148Z,20.65
2022-08-17T03:23:27.811Z,20.27
2022-08-17T03:25:57.310Z,21.65
2022-08-17T03:28:24.898Z,18.45
2022-08-17T03:30:52.404Z,19.50
2022-08-17T03:33:21.164Z,18.83
2022-08-17T03:35:48.093Z,17.60
2022-08-17T03:38:17.137Z,17.05
2022-08-17T03:40:57.136Z,19.13
2022-08-17T03:43:31.161Z,18.90
2022-08-17T03:46:34.229Z,19.58
2022-08-17T03:49:25.029Z,19.73
2022-08-17T03:52:11.193Z,18.42
2022-08-17T03:54:57.229Z,21.23
2022-08-17T03:57:24.731Z,19.70
2022-08-17T03:59:52.507Z,17.90
2022-08-17T04:02:26.633Z,19.73
2022-08-17T04:04:54.220Z,17.92
2022-08-17T04:07:23.411Z,19.10
2022-08-17T04:09:50.490Z,20.20
2022-08-17T04:12:19.113Z,18.90
2022-08-17T04:14:52.640Z,18.08
2022-08-17T04:17:26.371Z,19.77
2022-08-17T04:19:54.944Z,25.98
2022-08-17T04:22:32.048Z,19.38
2022-08-17T04:25:21.222Z,21.23
2022-08-17T04:27:48.768Z,22.05
2022-08-17T04:30:15.861Z,20.08
2022-08-17T04:33:00.742Z,17.75
2022-08-17T04:35:39.370Z,20.55
2022-08-17T04:38:07.730Z,20.88
2022-08-17T04:40:53.232Z,21.20
2022-08-17T04:43:23.008Z,22.55
2022-08-17T04:45:56.195Z,24.05
2022-08-17T04:48:36.096Z,21.80
2022-08-17T04:53:55.348Z,23.85
2022-08-17T04:56:23.937Z,22.77
2022-08-17T04:58:55.001Z,21.20
2022-08-17T05:01:24.758Z,26.17
2022-08-17T05:03:58.952Z,27.15
2022-08-17T05:06:27.891Z,25.17
2022-08-17T05:08:56.048Z,29.65
2022-08-17T05:11:25.410Z,28.45
2022-08-17T05:13:53.924Z,28.10
2022-08-17T05:16:22.320Z,27.70
2022-08-17T05:18:49.920Z,28.85
2022-08-17T05:21:16.995Z,29.50
2022-08-17T05:23:44.848Z,39.10
2022-08-17T05:26:26.920Z,28.00
2022-08-17T05:28:57.310Z,30.65
2022-08-17T05:31:27.364Z,30.98
2022-08-17T05:33:54.359Z,30.58
2022-08-17T05:36:43.622Z,30.92
2022-08-17T05:39:08.099Z,30.30
2022-08-17T05:41:37.603Z,34.05
2022-08-17T05:44:05.390Z,33.00
2022-08-17T05:46:36.405Z,34.47
2022-08-17T05:49:08.055Z,33.60
2022-08-17T05:52:08.779Z,31.23
2022-08-17T05:55:10.863Z,33.17
2022-08-17T05:57:59.866Z,27.77
2022-08-17T06:00:33.199Z,30.05
2022-08-17T06:03:34.042Z,26.05
2022-08-17T06:06:17.411Z,26.98
2022-08-17T06:08:53.445Z,29.85
2022-08-17T06:11:36.825Z,27.63
2022-08-17T06:14:09.918Z,28.00
2022-08-17T06:16:44.839Z,26.40
2022-08-17T06:19:17.821Z,24.92
2022-08-17T06:21:49.352Z,26.50
2022-08-17T06:24:28.312Z,28.42
2022-08-17T06:27:01.423Z,24.50
2022-08-17T06:29:35.388Z,30.38
2022-08-17T06:32:03.910Z,24.55
2022-08-17T06:34:32.483Z,24.90
2022-08-17T06:37:10.256Z,23.88
2022-08-17T06:39:47.823Z,26.80
2022-08-17T06:43:02.817Z,23.50
2022-08-17T06:45:28.969Z,23.48
2022-08-17T06:47:59.860Z,23.38
2022-08-17T06:50:45.132Z,24.65
2022-08-17T06:53:32.896Z,20.80
2022-08-17T06:56:06.757Z,22.83
2022-08-17T06:58:35.746Z,22.25
2022-08-17T07:01:16.138Z,24.90
2022-08-17T07:03:59.191Z,21.52
2022-08-17T07:09:28.807Z,21.20
2022-08-17T07:12:01.394Z,21.95
2022-08-17T07:14:53.145Z,19.15
2022-08-17T07:17:46.507Z,21.85
2022-08-17T07:20:15.456Z,21.35
2022-08-17T07:23:22.842Z,17.80
2022-08-17T07:25:50.288Z,18.55
2022-08-17T07:28:22.958Z,18.73
2022-08-17T07:30:54.639Z,17.48
2022-08-17T07:33:25.817Z,18.55
2022-08-17T07:35:53.883Z,19.00
2022-08-17T07:38:29.326Z,17.27
2022-08-17T07:41:02.639Z,16.85
2022-08-17T07:43:34.719Z,16.48
2022-08-17T07:46:38.843Z,16.02
2022-08-17T07:49:14.388Z,17.38
2022-08-17T07:51:44.276Z,18.00
2022-08-17T07:54:26.131Z,16.20
2022-08-17T07:56:57.319Z,15.10
2022-08-17T07:59:33.971Z,17.05
2022-08-17T08:02:06.373Z,14.10
2022-08-17T08:05:01.949Z,12.50
2022-08-17T08:07:38.371Z,12.48
2022-08-17T08:10:08.500Z,12.30
2022-08-17T08:12:37.113Z,15.23
2022-08-17T08:15:33.247Z,11.68
2022-08-17T08:18:03.345Z,13.77
2022-08-17T08:23:45.068Z,14.50
2022-08-17T08:26:30.398Z,13.40
2022-08-17T08:29:28.352Z,15.13
2022-08-17T08:32:20.176Z,15.25
2022-08-17T08:35:07.352Z,15.55
2022-08-17T08:38:06.000Z,15.32
2022-08-17T08:40:44.784Z,14.77
2022-08-17T08:43:52.777Z,19.02
2022-08-17T08:46:57.718Z,16.33
2022-08-17T08:50:02.233Z,18.75
2022-08-17T08:52:49.980Z,16.85
2022-08-17T08:55:51.033Z,15.85
2022-08-17T08:58:32.272Z,17.55
2022-08-17T09:01:28.127Z,16.75
2022-08-17T09:04:27.488Z,17.45
2022-08-17T09:07:01.395Z,17.10
2022-08-17T09:09:42.648Z,17.48
2022-08-17T09:12:24.732Z,17.40
2022-08-17T09:14:54.822Z,17.58
2022-08-17T09:17:32.578Z,18.08
2022-08-17T09:20:38.275Z,19.05
2022-08-17T09:23:27.064Z,15.73
2022-08-17T09:26:21.982Z,16.45
2022-08-17T09:29:01.511Z,17.15
2022-08-17T09:31:58.665Z,16.45
2022-08-17T09:34:43.633Z,17.35
2022-08-17T09:37:53.185Z,17.60
2022-08-17T09:40:33.010Z,15.00
2022-08-17T09:43:06.383Z,14.70
2022-08-17T09:45:45.190Z,16.50
2022-08-17T09:48:18.406Z,13.73
2022-08-17T09:51:04.174Z,12.82
2022-08-17T09:53:33.102Z,13.68
2022-08-17T09:56:08.944Z,18.13
2022-08-17T09:59:14.454Z,15.90
2022-08-17T10:02:28.054Z,14.50
2022-08-17T10:05:14.148Z,13.55
2022-08-17T10:07:56.073Z,14.65
2022-08-17T10:10:33.634Z,14.27
2022-08-17T10:13:35.448Z,13.38
2022-08-17T10:16:19.947Z,14.15
2022-08-17T10:18:49.898Z,13.20
2022-08-17T10:21:41.714Z,13.65
2022-08-17T10:25:23.088Z,13.95
2022-08-17T10:27:42.919Z,16.70
2022-08-17T10:30:13.830Z,16.20
2022-08-17T10:32:49.990Z,13.32
2022-08-17T10:35:20.109Z,13.55
2022-08-17T10:37:59.922Z,15.10
2022-08-17T10:40:55.849Z,13.77
2022-08-17T10:44:38.354Z,16.08
2022-08-17T10:47:06.218Z,15.05
2022-08-17T10:49:37.045Z,13.60
2022-08-17T10:52:24.834Z,11.75
2022-08-17T10:54:54.872Z,13.68
2022-08-17T10:57:34.292Z,13.30
2022-08-17T11:00:15.480Z,15.63
2022-08-17T11:02:49.858Z,14.30
2022-08-17T11:05:37.969Z,14.13
2022-08-17T11:08:30.926Z,12.90
2022-08-17T11:11:19.672Z,18.77
2022-08-17T11:14:06.823Z,17.90
2022-08-17T11:16:55.055Z,16.40
2022-08-17T11:19:30.986Z,16.90
2022-08-17T11:22:16.324Z,14.95
2022-08-17T11:24:47.853Z,17.80
2022-08-17T11:27:30.904Z,15.43
2022-08-17T11:30:02.193Z,15.48
2022-08-17T11:32:32.484Z,14.00
2022-08-17T11:35:19.045Z,14.93
2022-08-17T11:38:00.828Z,13.60
2022-08-17T11:40:52.837Z,14.35
2022-08-17T11:43:21.446Z,15.32
2022-08-17T11:46:17.024Z,14.82
2022-08-17T11:49:18.336Z,13.75
2022-08-17T11:52:07.801Z,14.70
2022-08-17T11:54:47.635Z,16.40
2022-08-17T11:57:26.270Z,16.90
2022-08-17T12:00:15.306Z,15.25
2022-08-17T12:02:48.847Z,14.23
2022-08-17T12:05:22.945Z,15.70
2022-08-17T12:08:10.863Z,14.32
2022-08-17T12:10:52.296Z,14.27
2022-08-17T12:13:20.051Z,17.00
2022-08-17T12:15:50.533Z,17.73
2022-08-17T12:18:29.883Z,15.65
2022-08-17T12:21:19.915Z,13.97
2022-08-17T12:24:24.732Z,13.13
2022-08-17T12:26:55.273Z,15.57
2022-08-17T12:29:35.813Z,14.65
2022-08-17T12:32:12.999Z,15.38
2022-08-17T12:34:42.695Z,14.40
2022-08-17T12:37:20.668Z,15.23
2022-08-17T12:39:53.744Z,13.30
2022-08-17T12:42:27.479Z,13.70
2022-08-17T12:44:54.497Z,12.93
2022-08-17T12:47:22.985Z,13.10
2022-08-17T12:49:52.526Z,12.68
2022-08-17T12:52:24.931Z,15.23
2022-08-17T12:54:54.848Z,12.43
2022-08-17T12:57:35.038Z,12.82
2022-08-17T13:00:15.779Z,13.80
2022-08-17T13:02:45.263Z,11.82
2022-08-17T13:05:20.886Z,11.88
2022-08-17T13:07:47.963Z,11.32
2022-08-17T13:10:22.635Z,12.43
2022-08-17T13:12:51.026Z,10.55
2022-08-17T13:15:23.361Z,15.35
2022-08-17T13:18:17.945Z,11.27
2022-08-17T13:20:54.216Z,10.13
2022-08-17T13:23:21.325Z,12.32
2022-08-17T13:25:55.850Z,12.30
2022-08-17T13:28:32.436Z,11.00
2022-08-17T13:31:32.954Z,12.70
2022-08-17T13:34:16.919Z,10.40
2022-08-17T13:39:21.265Z,12.50
2022-08-17T13:41:49.964Z,11.55
2022-08-17T13:44:33.763Z,13.23
2022-08-17T13:47:02.343Z,11.65
2022-08-17T13:49:48.054Z,10.82
2022-08-17T13:52:52.288Z,11.25
2022-08-17T13:55:22.397Z,9.57
2022-08-17T13:58:03.906Z,13.55
2022-08-17T14:00:36.416Z,10.82
2022-08-17T14:03:05.278Z,10.88
2022-08-17T14:05:33.767Z,10.02
2022-08-17T14:08:06.744Z,10.00
2022-08-17T14:10:36.387Z,10.67
2022-08-17T14:13:04.007Z,10.93
2022-08-17T14:15:56.091Z,12.75
2022-08-17T14:18:54.277Z,10.70
2022-08-17T14:21:08.324Z,9.35
2022-08-17T14:23:35.920Z,9.18
2022-08-17T14:26:02.871Z,9.85
2022-08-17T14:28:29.732Z,10.10
2022-08-17T14:30:56.605Z,11.38
2022-08-17T14:33:24.786Z,9.05
2022-08-17T14:35:53.527Z,9.52
2022-08-17T14:38:20.741Z,10.65
2022-08-17T14:40:48.740Z,11.13
2022-08-17T14:43:15.939Z,10.13
2022-08-17T14:45:43.459Z,10.40
2022-08-17T14:48:10.979Z,8.45
2022-08-17T14:50:41.222Z,8.88
2022-08-17T14:53:11.462Z,9.95
2022-08-17T14:55:40.613Z,7.85
2022-08-17T14:58:08.795Z,7.47
2022-08-17T15:00:35.979Z,7.50
2022-08-17T15:03:03.607Z,8.02
2022-08-17T15:05:35.137Z,6.93
2022-08-17T15:08:02.908Z,9.15
2022-08-17T15:10:30.752Z,8.40
2022-08-17T15:12:58.403Z,7.97
2022-08-17T15:15:26.003Z,7.57
2022-08-17T15:17:54.101Z,8.57
2022-08-17T15:20:27.884Z,7.07
2022-08-17T15:22:56.111Z,9.15
2022-08-17T15:25:25.975Z,8.02
2022-08-17T15:27:53.759Z,7.43
2022-08-17T15:30:21.430Z,8.73
2022-08-17T15:32:54.126Z,8.88
2022-08-17T15:35:27.975Z,7.30
2022-08-17T15:38:06.538Z,8.02
2022-08-17T15:40:40.200Z,7.38
2022-08-17T15:43:14.092Z,7.50
2022-08-17T15:45:41.336Z,6.20
2022-08-17T15:48:08.962Z,6.65
2022-08-17T15:50:36.285Z,8.75
2022-08-17T15:53:04.968Z,7.68
2022-08-17T15:55:32.580Z,7.00
2022-08-17T15:58:00.108Z,7.18
2022-08-17T16:00:29.149Z,8.48
2022-08-17T16:03:46.253Z,8.13
2022-08-17T16:05:46.674Z,8.05
2022-08-17T16:08:20.095Z,7.07
2022-08-17T16:10:48.006Z,6.75
2022-08-17T16:13:17.656Z,6.85
2022-08-17T16:15:51.119Z,6.75
2022-08-17T16:18:27.415Z,6.93
2022-08-17T16:20:55.010Z,6.97
2022-08-17T16:23:22.562Z,6.28
2022-08-17T16:25:52.992Z,6.47
2022-08-17T16:28:21.850Z,6.50
2022-08-17T16:30:48.754Z,6.60
2022-08-17T16:33:16.771Z,6.22
2022-08-17T16:35:43.955Z,9.95
2022-08-17T16:38:12.474Z,6.63
2022-08-17T16:40:40.472Z,7.05
2022-08-17T16:43:10.609Z,6.15
2022-08-17T16:45:40.526Z,7.35
2022-08-17T16:48:08.412Z,6.30
2022-08-17T16:50:36.778Z,6.88
2022-08-17T16:53:10.813Z,6.20
2022-08-17T16:55:38.418Z,6.03
2022-08-17T16:58:06.314Z,7.57
2022-08-17T17:00:33.768Z,5.28
2022-08-17T17:03:19.704Z,6.63
2022-08-17T17:06:07.261Z,5.85
2022-08-17T17:08:48.516Z,6.72
2022-08-17T17:11:41.343Z,6.90
2022-08-17T17:14:16.387Z,9.00
2022-08-17T17:17:02.613Z,6.65
2022-08-17T17:19:43.381Z,7.57
2022-08-17T17:22:16.256Z,6.70
2022-08-17T17:25:08.570Z,7.20
2022-08-17T17:27:54.016Z,6.70
2022-08-17T17:30:25.776Z,14.52
2022-08-17T17:33:14.662Z,7.00
2022-08-17T17:35:53.882Z,8.68
2022-08-17T17:38:31.341Z,7.87
2022-08-17T17:41:05.549Z,7.05
2022-08-17T17:43:39.731Z,7.32
2022-08-17T17:46:28.687Z,7.47
2022-08-17T17:49:00.194Z,8.30
2022-08-17T17:52:09.235Z,7.30
2022-08-17T17:55:01.026Z,7.25
2022-08-17T17:57:39.578Z,8.75
2022-08-17T18:00:22.150Z,8.32
2022-08-17T18:03:04.271Z,9.57
2022-08-17T18:05:37.326Z,11.25
2022-08-17T18:08:34.052Z,7.90
2022-08-17T18:11:26.300Z,8.77
2022-08-17T18:14:36.066Z,10.38
2022-08-17T18:17:03.130Z,8.93
2022-08-17T18:19:31.626Z,9.88
2022-08-17T18:22:05.102Z,8.70
2022-08-17T18:24:39.948Z,8.88
2022-08-17T18:27:24.659Z,9.05
2022-08-17T18:30:00.032Z,9.55
2022-08-17T18:32:32.338Z,10.00
2022-08-17T18:35:02.304Z,10.40
2022-08-17T18:37:45.081Z,8.85
2022-08-17T18:40:20.826Z,10.98
2022-08-17T18:43:05.345Z,9.52
2022-08-17T18:45:48.682Z,9.07
2022-08-17T18:48:49.600Z,9.52
2022-08-17T18:51:41.418Z,12.52
2022-08-17T18:54:14.803Z,10.32
2022-08-17T18:56:51.244Z,9.65
2022-08-17T18:59:29.579Z,12.05
2022-08-17T19:01:59.178Z,9.90
2022-08-17T19:04:37.165Z,11.48
2022-08-17T19:07:10.271Z,12.35
2022-08-17T19:09:43.753Z,10.52
2022-08-17T19:12:40.136Z,10.27
2022-08-17T19:15:10.603Z,11.70
2022-08-17T19:17:51.199Z,11.50
2022-08-17T19:20:21.413Z,10.57
2022-08-17T19:23:17.181Z,10.80
2022-08-17T19:26:06.383Z,17.00
2022-08-17T19:29:02.335Z,12.00
2022-08-17T19:31:30.837Z,12.52
2022-08-17T19:34:00.247Z,11.38
2022-08-17T19:36:55.496Z,11.60
2022-08-17T19:39:43.520Z,11.07
2022-08-17T19:42:13.452Z,10.95
2022-08-17T19:44:55.052Z,11.77
2022-08-17T19:47:53.658Z,11.57
2022-08-17T19:50:41.486Z,12.70
2022-08-17T19:54:04.277Z,12.52
2022-08-17T19:56:37.897Z,12.52
2022-08-17T19:59:36.080Z,10.95
2022-08-17T20:02:27.582Z,11.43
2022-08-17T20:05:00.310Z,11.95
2022-08-17T20:07:50.304Z,11.32
2022-08-17T20:10:34.409Z,13.02
2022-08-17T20:13:07.689Z,11.95
2022-08-17T20:15:39.295Z,12.23
2022-08-17T20:18:13.094Z,12.38
2022-08-17T20:20:49.149Z,12.95
2022-08-17T20:23:19.028Z,11.20
2022-08-17T20:26:10.741Z,13.57
2022-08-17T20:28:41.540Z,11.35
2022-08-17T20:31:59.159Z,11.93
2022-08-17T20:34:33.545Z,15.00
2022-08-17T20:37:14.452Z,15.05
2022-08-17T20:39:44.213Z,17.48
2022-08-17T20:42:31.014Z,14.25
2022-08-17T20:45:05.638Z,14.60
2022-08-17T20:47:50.462Z,14.48
2022-08-17T20:50:36.528Z,12.13
2022-08-17T20:53:07.228Z,13.93
2022-08-17T20:55:34.265Z,12.32
2022-08-17T20:58:24.191Z,13.57
2022-08-17T21:00:57.120Z,12.50
2022-08-17T21:03:24.150Z,14.00
2022-08-17T21:05:59.706Z,12.65
2022-08-17T21:08:58.780Z,14.05
2022-08-17T21:12:00.001Z,12.52
2022-08-17T21:14:37.357Z,12.77
2022-08-17T21:17:22.842Z,11.82
2022-08-17T21:20:27.302Z,15.48
2022-08-17T21:23:15.881Z,15.47
2022-08-17T21:26:15.656Z,13.80
2022-08-17T21:29:00.292Z,12.57
2022-08-17T21:31:36.066Z,13.27
2022-08-17T21:34:15.886Z,17.05
2022-08-17T21:36:44.555Z,13.73
2022-08-17T21:39:33.580Z,13.52
2022-08-17T21:42:01.346Z,15.98
2022-08-17T21:44:34.470Z,14.23
2022-08-17T21:47:23.651Z,14.95
2022-08-17T21:49:52.325Z,13.68
2022-08-17T21:52:22.879Z,14.63
2022-08-17T21:54:57.223Z,13.15
2022-08-17T21:57:28.815Z,14.45
2022-08-17T21:59:59.818Z,14.25
2022-08-17T22:02:36.838Z,15.75
2022-08-17T22:05:06.719Z,13.52
2022-08-17T22:07:42.144Z,13.65
2022-08-17T22:10:45.738Z,14.77
2022-08-17T22:13:23.016Z,15.07
2022-08-17T22:16:15.400Z,14.95
2022-08-17T22:18:57.980Z,15.13
2022-08-17T22:21:25.431Z,16.20
2022-08-17T22:24:15.389Z,16.23
2022-08-17T22:27:03.468Z,19.63
2022-08-17T22:29:57.277Z,16.00
2022-08-17T22:32:45.416Z,14.88
2022-08-17T22:35:33.352Z,14.55
2022-08-17T22:38:18.516Z,15.68
2022-08-17T22:40:51.386Z,20.45
2022-08-17T22:43:26.437Z,17.58
2022-08-17T22:46:00.002Z,17.85
2022-08-17T22:48:29.431Z,18.50
2022-08-17T22:51:12.612Z,15.85
2022-08-17T22:54:09.224Z,16.35
2022-08-17T22:56:55.620Z,19.20
2022-08-17T22:59:43.752Z,16.05
2022-08-17T23:02:26.654Z,18.30
2022-08-17T23:04:57.338Z,18.80
2022-08-17T23:07:24.316Z,21.23
2022-08-17T23:09:51.882Z,19.17
2022-08-17T23:12:26.272Z,19.25
2022-08-17T23:15:00.550Z,17.63
2022-08-17T23:17:37.249Z,18.15
2022-08-17T23:20:16.096Z,17.60
2022-08-17T23:22:51.522Z,18.17
2022-08-17T23:25:29.156Z,17.42
2022-08-17T23:27:58.428Z,18.23
2022-08-17T23:30:28.446Z,18.73
2022-08-17T23:32:56.571Z,19.38
2022-08-17T23:35:40.166Z,20.48
2022-08-17T23:38:12.282Z,19.75
2022-08-17T23:40:40.124Z,17.52
2022-08-17T23:43:23.798Z,16.67
2022-08-17T23:45:59.786Z,18.05
2022-08-17T23:48:36.345Z,19.27
2022-08-17T23:51:08.648Z,18.80
2022-08-17T23:53:36.755Z,19.55
2022-08-17T23:56:10.303Z,17.90
2022-08-17T23:58:43.195Z,19.05
